createdAt,value
2018-10-01T00:01:35.836Z,86.12
2018-10-01T00:04:05.653Z,85.93
2018-10-01T00:06:35.412Z,85.38
2018-10-01T00:09:06.544Z,85.70
2018-10-01T00:11:36.043Z,85.75
2018-10-01T00:14:05.923Z,85.44
2018-10-01T00:16:35.726Z,85.67
2018-10-01T00:19:09.612Z,85.17
2018-10-01T00:21:44.422Z,84.91
2018-10-01T00:24:14.180Z,84.89
2018-10-01T00:26:43.906Z,84.38
2018-10-01T00:29:13.672Z,84.61
2018-10-01T00:31:43.454Z,85.14
2018-10-01T00:34:13.193Z,84.55
2018-10-01T00:36:42.978Z,85.04
2018-10-01T00:39:12.409Z,84.63
2018-10-01T00:41:42.466Z,84.49
2018-10-01T00:44:12.273Z,84.95
2018-10-01T00:46:41.757Z,84.68
2018-10-01T00:49:11.211Z,84.58
2018-10-01T00:51:40.597Z,84.85
2018-10-01T00:54:10.419Z,84.38
2018-10-01T00:56:39.886Z,84.51
2018-10-01T00:59:09.894Z,84.40
2018-10-01T01:01:39.654Z,84.13
2018-10-01T01:04:09.060Z,83.95
2018-10-01T01:06:38.953Z,84.35
2018-10-01T01:09:09.729Z,84.50
2018-10-01T01:11:39.549Z,84.06
2018-10-01T01:14:08.977Z,83.41
2018-10-01T01:16:38.404Z,83.61
2018-10-01T01:19:08.152Z,83.93
2018-10-01T01:21:37.619Z,83.69
2018-10-01T01:24:07.017Z,83.33
2018-10-01T01:26:36.529Z,82.98
2018-10-01T01:29:05.993Z,83.31
2018-10-01T01:31:35.985Z,83.38
2018-10-01T01:34:05.761Z,84.03
2018-10-01T01:36:35.225Z,84.42
2018-10-01T01:39:07.841Z,83.74
2018-10-01T01:41:37.695Z,83.68
2018-10-01T01:44:07.709Z,83.76
2018-10-01T01:46:37.797Z,84.28
2018-10-01T01:49:07.460Z,84.21
2018-10-01T01:51:37.417Z,84.48
2018-10-01T01:54:07.263Z,84.90
2018-10-01T01:56:37.137Z,84.67
2018-10-01T01:59:07.011Z,83.83
2018-10-01T02:01:36.905Z,84.00
2018-10-01T02:04:06.737Z,84.47
2018-10-01T02:06:36.245Z,84.10
2018-10-01T02:09:08.940Z,84.46
2018-10-01T02:11:38.473Z,84.55
2018-10-01T02:14:08.482Z,84.68
2018-10-01T02:16:38.607Z,84.23
2018-10-01T02:19:08.512Z,84.29
2018-10-01T02:21:38.419Z,84.62
2018-10-01T02:24:08.247Z,84.83
2018-10-01T02:26:37.804Z,84.47
2018-10-01T02:29:07.737Z,85.60
2018-10-01T02:31:37.671Z,85.15
2018-10-01T02:34:07.777Z,85.37
2018-10-01T02:36:37.725Z,84.79
2018-10-01T02:39:12.653Z,85.08
2018-10-01T02:41:42.264Z,84.80
2018-10-01T02:44:11.768Z,85.28
2018-10-01T02:46:41.385Z,84.95
2018-10-01T02:49:11.027Z,85.47
2018-10-01T02:51:46.265Z,85.14
2018-10-01T02:54:21.058Z,85.28
2018-10-01T02:56:50.854Z,86.22
2018-10-01T02:59:20.332Z,86.77
2018-10-01T03:01:49.880Z,86.58
2018-10-01T03:04:19.769Z,86.67
2018-10-01T03:06:49.687Z,86.81
2018-10-01T03:09:19.103Z,87.19
2018-10-01T03:11:48.895Z,88.22
2018-10-01T03:14:18.372Z,87.87
2018-10-01T03:16:48.137Z,87.55
2018-10-01T03:19:17.592Z,87.34
2018-10-01T03:21:47.792Z,87.00
2018-10-01T03:24:17.723Z,87.22
2018-10-01T03:26:47.201Z,86.73
2018-10-01T03:29:16.971Z,87.51
2018-10-01T03:31:46.796Z,87.60
2018-10-01T03:34:16.212Z,87.21
2018-10-01T03:36:46.024Z,87.64
2018-10-01T03:39:15.773Z,87.75
2018-10-01T03:41:45.214Z,87.70
2018-10-01T03:44:15.033Z,86.72
2018-10-01T03:46:44.484Z,86.65
2018-10-01T03:49:15.236Z,86.76
2018-10-01T03:51:44.712Z,87.08
2018-10-01T03:54:14.500Z,87.17
2018-10-01T03:56:44.293Z,87.65
2018-10-01T03:59:13.781Z,88.04
2018-10-01T04:01:43.582Z,88.06
2018-10-01T04:04:13.305Z,88.10
2018-10-01T04:06:43.160Z,88.79
2018-10-01T04:09:12.732Z,89.28
2018-10-01T04:11:42.478Z,88.99
2018-10-01T04:14:12.465Z,89.33
2018-10-01T04:16:41.871Z,89.65
2018-10-01T04:19:11.880Z,88.95
2018-10-01T04:21:41.895Z,88.11
2018-10-01T04:24:11.491Z,88.05
2018-10-01T04:26:41.312Z,88.15
2018-10-01T04:29:10.959Z,87.87
2018-10-01T04:31:40.476Z,88.04
2018-10-01T04:34:10.164Z,88.09
2018-10-01T04:36:40.224Z,87.64
2018-10-01T04:39:12.948Z,87.50
2018-10-01T04:41:42.859Z,87.34
2018-10-01T04:44:12.655Z,87.15
2018-10-01T04:46:42.505Z,87.51
2018-10-01T04:49:12.578Z,87.69
2018-10-01T04:51:43.190Z,88.02
2018-10-01T04:54:12.704Z,88.44
2018-10-01T04:56:42.257Z,87.83
2018-10-01T04:59:11.653Z,87.79
2018-10-01T05:01:41.051Z,88.56
2018-10-01T05:04:10.511Z,88.72
2018-10-01T05:06:39.904Z,88.51
2018-10-01T05:09:10.716Z,88.96
2018-10-01T05:11:40.421Z,89.22
2018-10-01T05:14:10.244Z,88.53
2018-10-01T05:16:39.659Z,88.46
2018-10-01T05:19:09.079Z,87.81
2018-10-01T05:21:38.475Z,87.19
2018-10-01T05:24:07.903Z,87.16
2018-10-01T05:26:37.339Z,87.40
2018-10-01T05:29:07.507Z,87.41
2018-10-01T05:31:37.384Z,87.00
2018-10-01T05:34:07.249Z,86.94
2018-10-01T05:36:36.791Z,86.78
2018-10-01T05:39:10.778Z,86.73
2018-10-01T05:41:40.502Z,86.68
2018-10-01T05:44:10.330Z,86.68
2018-10-01T05:46:41.174Z,86.72
2018-10-01T05:49:10.726Z,86.29
2018-10-01T05:51:40.427Z,86.48
2018-10-01T05:54:10.324Z,86.29
2018-10-01T05:56:39.842Z,86.50
2018-10-01T05:59:10.075Z,86.84
2018-10-01T06:01:39.739Z,86.47
2018-10-01T06:04:09.125Z,86.14
2018-10-01T06:06:38.557Z,85.65
2018-10-01T06:09:10.925Z,86.17
2018-10-01T06:11:40.425Z,85.53
2018-10-01T06:14:09.762Z,85.30
2018-10-01T06:16:39.563Z,85.09
2018-10-01T06:19:09.400Z,84.72
2018-10-01T06:21:38.889Z,84.88
2018-10-01T06:24:08.299Z,84.44
2018-10-01T06:26:38.054Z,84.17
2018-10-01T06:29:07.863Z,84.48
2018-10-01T06:31:37.232Z,83.92
2018-10-01T06:34:06.997Z,83.58
2018-10-01T06:36:36.716Z,83.08
2018-10-01T06:39:09.169Z,82.63
2018-10-01T06:41:39.226Z,82.51
2018-10-01T06:44:09.267Z,81.80
2018-10-01T06:46:39.083Z,81.71
2018-10-01T06:49:09.164Z,81.74
2018-10-01T06:51:38.923Z,81.15
2018-10-01T06:54:08.662Z,80.94
2018-10-01T06:56:38.075Z,80.92
2018-10-01T06:59:07.578Z,80.84
2018-10-01T07:01:37.332Z,80.23
2018-10-01T07:04:07.160Z,79.47
2018-10-01T07:06:36.926Z,79.28
2018-10-01T07:09:10.010Z,78.30
2018-10-01T07:11:40.458Z,76.75
2018-10-01T07:14:09.728Z,75.74
2018-10-01T07:16:39.589Z,74.66
2018-10-01T07:19:09.326Z,73.35
2018-10-01T07:21:39.170Z,73.39
2018-10-01T07:24:08.918Z,72.99
2018-10-01T07:26:38.770Z,72.50
2018-10-01T07:29:08.552Z,72.25
2018-10-01T07:31:38.340Z,70.81
2018-10-01T07:34:08.154Z,70.24
2018-10-01T07:36:37.928Z,69.58
2018-10-01T07:39:09.062Z,68.57
2018-10-01T07:41:38.882Z,67.93
2018-10-01T07:44:09.034Z,67.66
2018-10-01T07:46:38.920Z,66.97
2018-10-01T07:49:08.684Z,65.12
2018-10-01T07:51:38.414Z,64.35
2018-10-01T07:54:08.911Z,63.66
2018-10-01T07:56:38.722Z,63.84
2018-10-01T07:59:08.734Z,64.04
2018-10-01T08:01:38.445Z,64.12
2018-10-01T08:04:08.238Z,64.72
2018-10-01T08:06:37.943Z,64.94
2018-10-01T08:09:10.209Z,65.39
2018-10-01T08:11:40.045Z,64.53
2018-10-01T08:14:09.917Z,63.05
2018-10-01T08:16:39.658Z,61.87
2018-10-01T08:19:09.711Z,60.87
2018-10-01T08:21:39.523Z,60.04
2018-10-01T08:24:09.310Z,58.94
2018-10-01T08:26:39.204Z,59.07
2018-10-01T08:29:09.024Z,60.14
2018-10-01T08:31:38.710Z,60.25
2018-10-01T08:34:08.478Z,61.00
2018-10-01T08:36:38.219Z,61.39
2018-10-01T08:39:13.334Z,60.97
2018-10-01T08:41:43.285Z,61.30
2018-10-01T08:44:13.820Z,62.14
2018-10-01T08:46:43.595Z,62.04
2018-10-01T08:50:21.265Z,62.21
2018-10-01T08:53:03.563Z,61.93
2018-10-01T08:55:33.396Z,61.55
2018-10-01T08:58:03.119Z,61.05
2018-10-01T09:00:32.972Z,60.72
2018-10-01T09:03:02.945Z,60.71
2018-10-01T09:05:32.809Z,60.04
2018-10-01T09:08:02.652Z,58.57
2018-10-01T09:10:32.482Z,57.21
2018-10-01T09:13:02.282Z,56.11
2018-10-01T09:15:32.067Z,55.11
2018-10-01T09:18:01.858Z,53.79
2018-10-01T09:20:31.596Z,52.96
2018-10-01T09:23:01.395Z,51.94
2018-10-01T09:25:31.206Z,50.50
2018-10-01T09:28:00.999Z,50.12
2018-10-01T09:30:30.722Z,49.18
2018-10-01T09:33:00.481Z,49.35
2018-10-01T09:35:30.315Z,49.21
2018-10-01T09:38:00.187Z,47.64
2018-10-01T09:40:30.072Z,47.25
2018-10-01T09:42:59.856Z,46.83
2018-10-01T09:45:29.715Z,45.88
2018-10-01T09:47:59.596Z,44.91
2018-10-01T09:50:29.379Z,43.96
2018-10-01T09:52:59.123Z,42.89
2018-10-01T09:55:28.871Z,42.92
2018-10-01T09:57:58.634Z,43.72
2018-10-01T10:00:33.414Z,43.76
2018-10-01T10:03:03.173Z,43.74
2018-10-01T10:05:32.913Z,43.26
2018-10-01T10:08:02.722Z,43.64
2018-10-01T10:10:32.542Z,43.70
2018-10-01T10:13:02.300Z,43.92
2018-10-01T10:15:32.089Z,44.65
2018-10-01T10:18:01.900Z,45.05
2018-10-01T10:20:31.711Z,44.59
2018-10-01T10:23:01.536Z,45.66
2018-10-01T10:25:31.325Z,45.90
2018-10-01T10:28:01.102Z,45.51
2018-10-01T10:30:30.917Z,46.08
2018-10-01T10:33:00.801Z,45.68
2018-10-01T10:35:30.632Z,46.23
2018-10-01T10:38:00.442Z,46.30
2018-10-01T10:40:30.391Z,46.87
2018-10-01T10:43:00.201Z,46.13
2018-10-01T10:45:30.044Z,46.31
2018-10-01T10:47:59.829Z,47.06
2018-10-01T10:50:29.579Z,47.06
2018-10-01T10:52:59.345Z,46.90
2018-10-01T10:55:29.132Z,46.67
2018-10-01T10:57:58.925Z,47.08
2018-10-01T11:00:28.707Z,47.20
2018-10-01T11:02:58.409Z,47.53
2018-10-01T11:05:28.117Z,47.77
2018-10-01T11:07:57.975Z,47.51
2018-10-01T11:10:27.770Z,48.04
2018-10-01T11:12:57.471Z,47.56
2018-10-01T11:15:27.322Z,47.47
2018-10-01T11:17:57.121Z,46.81
2018-10-01T11:20:27.076Z,46.93
2018-10-01T11:22:56.715Z,46.17
2018-10-01T11:25:26.561Z,46.17
2018-10-01T11:27:56.439Z,45.38
2018-10-01T11:30:26.229Z,45.10
2018-10-01T11:32:56.099Z,43.72
2018-10-01T11:35:26.100Z,43.99
2018-10-01T11:37:55.671Z,43.41
2018-10-01T11:40:25.446Z,43.14
2018-10-01T11:42:55.209Z,41.67
2018-10-01T11:45:25.094Z,42.88
2018-10-01T11:47:54.873Z,42.97
2018-10-01T11:50:24.690Z,43.25
2018-10-01T11:52:54.551Z,44.16
2018-10-01T11:55:24.352Z,44.02
2018-10-01T11:57:54.125Z,43.83
2018-10-01T12:00:23.969Z,44.09
2018-10-01T12:02:53.757Z,44.32
2018-10-01T12:05:23.602Z,44.10
2018-10-01T12:07:54.347Z,44.12
2018-10-01T12:10:24.149Z,43.98
2018-10-01T12:12:53.950Z,44.89
2018-10-01T12:15:23.818Z,45.01
2018-10-01T12:17:53.572Z,46.09
2018-10-01T12:20:23.314Z,46.73
2018-10-01T12:22:53.126Z,47.12
2018-10-01T12:25:22.890Z,46.70
2018-10-01T12:27:52.639Z,46.08
2018-10-01T12:30:22.386Z,46.04
2018-10-01T12:32:52.138Z,45.78
2018-10-01T12:35:21.980Z,46.10
2018-10-01T12:37:51.716Z,46.25
2018-10-01T12:40:21.475Z,46.37
2018-10-01T12:42:51.447Z,47.34
2018-10-01T12:45:21.259Z,47.21
2018-10-01T12:47:51.025Z,46.54
2018-10-01T12:50:20.761Z,46.83
2018-10-01T12:52:50.560Z,46.93
2018-10-01T12:55:20.440Z,47.06
2018-10-01T12:57:50.242Z,47.16
2018-10-01T13:00:19.992Z,46.68
2018-10-01T13:02:49.890Z,46.79
2018-10-01T13:05:19.656Z,47.07
2018-10-01T13:07:49.500Z,46.39
2018-10-01T13:10:19.320Z,46.31
2018-10-01T13:12:49.118Z,45.39
2018-10-01T13:15:18.884Z,45.68
2018-10-01T13:17:48.639Z,45.43
2018-10-01T13:20:18.443Z,45.48
2018-10-01T13:22:48.320Z,46.00
2018-10-01T13:25:18.136Z,44.56
2018-10-01T13:27:47.850Z,45.20
2018-10-01T13:30:18.092Z,44.92
2018-10-01T13:32:47.863Z,45.91
2018-10-01T13:35:17.675Z,45.59
2018-10-01T13:37:47.505Z,45.55
2018-10-01T13:40:17.316Z,46.07
2018-10-01T13:42:47.414Z,47.07
2018-10-01T13:45:17.288Z,47.34
2018-10-01T13:47:47.168Z,48.54
2018-10-01T13:50:16.963Z,49.70
2018-10-01T13:52:46.789Z,50.26
2018-10-01T13:55:16.683Z,50.95
2018-10-01T13:57:46.452Z,51.63
2018-10-01T14:00:16.321Z,52.15
2018-10-01T14:02:46.090Z,52.05
2018-10-01T14:05:15.845Z,52.21
2018-10-01T14:07:45.683Z,53.66
2018-10-01T14:10:15.407Z,55.59
2018-10-01T14:12:45.186Z,57.42
2018-10-01T14:15:15.028Z,58.66
2018-10-01T14:17:45.007Z,59.16
2018-10-01T14:20:14.860Z,60.14
2018-10-01T14:22:44.690Z,60.72
2018-10-01T14:25:14.516Z,61.50
2018-10-01T14:27:44.810Z,61.98
2018-10-01T14:30:14.673Z,62.36
2018-10-01T14:32:44.475Z,62.14
2018-10-01T14:35:14.296Z,60.64
2018-10-01T14:37:44.599Z,61.46
2018-10-01T14:40:14.356Z,61.69
2018-10-01T14:42:44.195Z,62.02
2018-10-01T14:45:14.156Z,62.03
2018-10-01T14:47:43.991Z,61.82
2018-10-01T14:50:13.963Z,62.54
2018-10-01T14:52:43.727Z,63.85
2018-10-01T14:55:13.575Z,64.70
2018-10-01T14:57:43.367Z,65.34
2018-10-01T15:00:13.201Z,67.58
2018-10-01T15:02:42.998Z,69.09
2018-10-01T15:05:12.810Z,70.29
2018-10-01T15:07:42.622Z,71.96
2018-10-01T15:10:12.428Z,72.43
2018-10-01T15:12:42.228Z,73.21
2018-10-01T15:15:13.113Z,73.36
2018-10-01T15:17:42.868Z,74.18
2018-10-01T15:20:12.702Z,73.86
2018-10-01T15:22:42.539Z,74.42
2018-10-01T15:25:12.356Z,74.16
2018-10-01T15:27:42.123Z,73.52
2018-10-01T15:30:11.953Z,73.75
2018-10-01T15:32:41.703Z,74.25
2018-10-01T15:35:11.589Z,74.79
2018-10-01T15:37:41.365Z,74.21
2018-10-01T15:40:11.189Z,75.01
2018-10-01T15:42:41.024Z,74.96
2018-10-01T15:45:10.974Z,75.23
2018-10-01T15:47:40.856Z,75.56
2018-10-01T15:50:10.695Z,75.77
2018-10-01T15:52:40.580Z,76.49
2018-10-01T15:55:10.496Z,76.72
2018-10-01T15:57:40.329Z,76.83
2018-10-01T16:00:10.201Z,77.14
2018-10-01T16:02:40.069Z,76.86
2018-10-01T16:05:09.880Z,77.19
2018-10-01T16:07:39.620Z,76.78
2018-10-01T16:10:09.463Z,77.16
2018-10-01T16:12:39.577Z,77.52
2018-10-01T16:15:09.458Z,78.27
2018-10-01T16:17:39.414Z,78.41
2018-10-01T16:20:09.453Z,78.04
2018-10-01T16:22:39.251Z,78.45
2018-10-01T16:25:08.922Z,78.24
2018-10-01T16:27:39.275Z,79.23
2018-10-01T16:30:09.534Z,79.34
2018-10-01T16:32:39.584Z,79.73
2018-10-01T16:35:09.834Z,80.22
2018-10-01T16:37:39.756Z,81.02
2018-10-01T16:40:11.677Z,81.52
2018-10-01T16:42:42.166Z,82.13
2018-10-01T16:45:11.900Z,82.59
2018-10-01T16:47:41.721Z,82.50
2018-10-01T16:50:11.704Z,83.06
2018-10-01T16:52:41.546Z,82.89
2018-10-01T16:55:12.445Z,83.23
2018-10-01T16:57:42.377Z,83.32
2018-10-01T17:00:12.794Z,82.57
2018-10-01T17:02:42.690Z,82.97
2018-10-01T17:05:13.400Z,82.37
2018-10-01T17:07:43.269Z,82.51
2018-10-01T17:10:16.953Z,82.15
2018-10-01T17:12:46.937Z,82.75
2018-10-01T17:15:19.893Z,82.43
2018-10-01T17:17:53.319Z,81.89
2018-10-01T17:20:23.145Z,78.71
2018-10-01T17:25:34.645Z,78.17
2018-10-01T17:28:04.650Z,78.44
2018-10-01T17:30:34.368Z,78.75
2018-10-01T17:33:04.259Z,77.85
2018-10-01T17:35:33.694Z,79.25
2018-10-01T17:38:03.225Z,79.30
2018-10-01T17:40:33.937Z,79.81
2018-10-01T17:43:04.439Z,80.34
2018-10-01T17:45:34.029Z,80.19
2018-10-01T17:48:04.179Z,81.83
2018-10-01T17:50:34.214Z,81.53
2018-10-01T17:53:04.147Z,81.24
2018-10-01T17:55:34.729Z,81.64
2018-10-01T17:58:04.545Z,82.31
2018-10-01T18:00:33.989Z,82.26
2018-10-01T18:03:04.173Z,82.68
2018-10-01T18:05:35.175Z,82.80
2018-10-01T18:08:04.660Z,82.88
2018-10-01T18:10:34.622Z,83.00
2018-10-01T18:13:04.741Z,83.69
2018-10-01T18:15:35.501Z,83.94
2018-10-01T18:18:05.571Z,83.49
2018-10-01T18:20:35.541Z,83.11
2018-10-01T18:23:06.483Z,82.90
2018-10-01T18:25:36.856Z,82.56
2018-10-01T18:28:12.249Z,80.64
2018-10-01T18:30:42.233Z,80.82
2018-10-01T18:33:12.293Z,78.72
2018-10-01T18:35:42.668Z,76.46
2018-10-01T18:38:12.696Z,75.18
2018-10-01T18:40:42.320Z,75.39
2018-10-01T18:43:13.981Z,76.73
2018-10-01T18:45:43.911Z,79.79
2018-10-01T18:48:13.661Z,82.03
2018-10-01T18:50:43.313Z,83.84
2018-10-01T18:53:13.096Z,84.49
2018-10-01T18:55:42.872Z,85.24
2018-10-01T18:58:19.523Z,86.69
2018-10-01T19:00:53.473Z,87.28
2018-10-01T19:03:23.450Z,88.13
2018-10-01T19:05:53.154Z,88.52
2018-10-01T19:08:23.041Z,90.93
2018-10-01T19:10:52.772Z,91.88
2018-10-01T19:13:24.816Z,92.26
2018-10-01T19:15:55.090Z,92.45
2018-10-01T19:18:30.263Z,91.99
2018-10-01T19:21:00.256Z,93.45
2018-10-01T19:23:31.315Z,94.10
2018-10-01T19:26:01.779Z,93.93
2018-10-01T19:28:31.721Z,93.76
2018-10-01T19:31:07.344Z,93.46
2018-10-01T19:33:37.415Z,92.53
2018-10-01T19:36:07.770Z,92.20
2018-10-01T19:38:37.829Z,92.62
2018-10-01T19:41:08.199Z,92.52
2018-10-01T19:43:38.283Z,92.48
2018-10-01T19:46:08.739Z,92.41
2018-10-01T19:48:40.130Z,93.01
2018-10-01T19:51:10.590Z,92.66
2018-10-01T19:53:40.128Z,93.09
2018-10-01T19:56:10.104Z,92.57
2018-10-01T19:58:39.958Z,92.48
2018-10-01T20:01:09.779Z,92.74
2018-10-01T20:03:39.622Z,92.96
2018-10-01T20:06:09.416Z,93.44
2018-10-01T20:08:40.323Z,93.71
2018-10-01T20:11:10.313Z,93.58
2018-10-01T20:13:40.188Z,93.79
2018-10-01T20:16:09.990Z,93.46
2018-10-01T20:18:39.758Z,92.66
2018-10-01T20:21:09.671Z,93.04
2018-10-01T20:23:39.490Z,93.35
2018-10-01T20:26:09.403Z,92.76
2018-10-01T20:28:39.361Z,93.62
2018-10-01T20:31:09.094Z,93.23
2018-10-01T20:33:39.166Z,92.49
2018-10-01T20:36:09.112Z,92.42
2018-10-01T20:38:39.016Z,91.77
2018-10-01T20:41:09.093Z,92.08
2018-10-01T20:43:38.801Z,92.47
2018-10-01T20:46:09.120Z,92.06
2018-10-01T20:48:38.887Z,91.88
2018-10-01T20:51:08.476Z,92.46
2018-10-01T20:53:38.290Z,92.68
2018-10-01T20:56:07.933Z,92.04
2018-10-01T20:58:38.211Z,91.88
2018-10-01T21:01:08.131Z,92.36
2018-10-01T21:03:37.703Z,91.89
2018-10-01T21:06:07.710Z,92.10
2018-10-01T21:08:37.631Z,91.84
2018-10-01T21:11:07.697Z,91.48
2018-10-01T21:13:37.590Z,91.70
2018-10-01T21:16:07.729Z,91.45
2018-10-01T21:18:37.544Z,91.79
2018-10-01T21:21:07.079Z,92.63
2018-10-01T21:23:36.805Z,92.63
2018-10-01T21:26:06.885Z,92.58
2018-10-01T21:28:36.731Z,92.99
2018-10-01T21:31:06.199Z,93.71
2018-10-01T21:33:35.727Z,93.73
2018-10-01T21:36:05.503Z,93.52
2018-10-01T21:38:35.066Z,93.77
2018-10-01T21:41:04.925Z,93.11
2018-10-01T21:43:34.797Z,93.53
2018-10-01T21:46:04.375Z,93.55
2018-10-01T21:48:33.751Z,93.72
2018-10-01T21:51:03.559Z,93.99
2018-10-01T21:53:33.395Z,93.76
2018-10-01T21:56:02.926Z,93.49
2018-10-01T21:58:32.754Z,93.76
2018-10-01T22:01:07.931Z,93.52
2018-10-01T22:03:37.713Z,93.44
2018-10-01T22:06:07.525Z,93.71
2018-10-01T22:08:37.383Z,93.20
2018-10-01T22:11:07.264Z,92.25
2018-10-01T22:13:36.782Z,92.19
2018-10-01T22:16:06.567Z,91.64
2018-10-01T22:18:36.333Z,90.94
2018-10-01T22:21:06.175Z,90.18
2018-10-01T22:23:35.950Z,90.46
2018-10-01T22:26:05.711Z,90.02
2018-10-01T22:28:35.107Z,89.84
2018-10-01T22:31:04.914Z,89.01
2018-10-01T22:33:34.719Z,89.20
2018-10-01T22:36:04.509Z,88.90
2018-10-01T22:38:34.387Z,88.71
2018-10-01T22:41:04.219Z,88.97
2018-10-01T22:43:34.051Z,88.74
2018-10-01T22:46:03.492Z,88.29
2018-10-01T22:48:33.333Z,88.04
2018-10-01T22:51:02.874Z,88.09
2018-10-01T22:53:32.650Z,87.52
2018-10-01T22:56:02.470Z,87.87
2018-10-01T22:58:32.310Z,87.52
2018-10-01T23:01:02.089Z,88.15
2018-10-01T23:03:31.842Z,88.59
2018-10-01T23:06:01.526Z,88.42
2018-10-01T23:08:31.389Z,89.01
2018-10-01T23:11:01.231Z,89.98
2018-10-01T23:13:31.035Z,89.73
2018-10-01T23:16:00.820Z,90.54
2018-10-01T23:18:30.308Z,90.43
2018-10-01T23:21:00.240Z,90.81
2018-10-01T23:23:30.382Z,91.14
2018-10-01T23:25:59.893Z,91.48
2018-10-01T23:28:29.714Z,92.02
2018-10-01T23:30:59.674Z,91.75
2018-10-01T23:33:29.478Z,92.30
2018-10-01T23:35:58.872Z,91.98
2018-10-01T23:38:28.793Z,92.02
2018-10-01T23:40:58.530Z,92.46
2018-10-01T23:43:28.090Z,91.78
2018-10-01T23:45:57.919Z,92.15
2018-10-01T23:48:27.756Z,91.67
2018-10-01T23:50:57.218Z,91.43
2018-10-01T23:53:27.076Z,91.42
2018-10-01T23:55:56.887Z,91.15
2018-10-01T23:58:26.686Z,89.65
